createdAt,value
2022-10-22T00:01:28.595Z,1.13
2022-10-22T00:03:55.853Z,1.40
2022-10-22T00:06:23.171Z,1.37
2022-10-22T00:08:50.575Z,1.47
2022-10-22T00:11:18.790Z,1.30
2022-10-22T00:16:19.115Z,1.20
2022-10-22T00:18:46.376Z,1.20
2022-10-22T00:21:13.788Z,1.10
2022-10-22T00:23:42.447Z,1.13
2022-10-22T00:26:10.215Z,1.07
2022-10-22T00:28:37.795Z,1.20
2022-10-22T00:31:05.188Z,1.07
2022-10-22T00:33:32.528Z,1.20
2022-10-22T00:35:59.824Z,1.30
2022-10-22T00:38:27.239Z,1.20
2022-10-22T00:40:54.604Z,1.40
2022-10-22T00:43:22.123Z,1.13
2022-10-22T00:45:49.377Z,1.30
2022-10-22T00:48:21.142Z,1.40
2022-10-22T00:50:50.088Z,1.00
2022-10-22T00:53:21.590Z,1.30
2022-10-22T00:55:51.151Z,1.10
2022-10-22T00:58:18.692Z,1.40
2022-10-22T01:00:46.016Z,1.03
2022-10-22T01:03:14.358Z,1.37
2022-10-22T01:05:51.867Z,1.47
2022-10-22T01:08:24.937Z,1.60
2022-10-22T01:11:08.789Z,1.07
2022-10-22T01:13:54.960Z,1.30
2022-10-22T01:19:09.719Z,1.23
2022-10-22T01:21:42.604Z,1.30
2022-10-22T01:24:21.385Z,1.23
2022-10-22T01:27:00.991Z,1.17
2022-10-22T01:29:37.092Z,0.90
2022-10-22T01:32:15.087Z,1.30
2022-10-22T01:34:44.211Z,1.20
2022-10-22T01:37:12.884Z,1.37
2022-10-22T01:39:40.929Z,1.20
2022-10-22T01:42:08.622Z,1.00
2022-10-22T01:44:40.056Z,1.13
2022-10-22T01:47:26.054Z,1.50
2022-10-22T01:49:53.335Z,1.00
2022-10-22T01:52:28.249Z,1.33
2022-10-22T01:54:58.415Z,1.30
2022-10-22T01:57:40.443Z,1.00
2022-10-22T02:00:12.516Z,1.20
2022-10-22T02:02:58.290Z,1.40
2022-10-22T02:05:30.571Z,1.20
2022-10-22T02:08:03.214Z,1.13
2022-10-22T02:10:31.325Z,1.20
2022-10-22T02:12:59.314Z,1.10
2022-10-22T02:15:28.124Z,1.30
2022-10-22T02:17:57.004Z,1.20
2022-10-22T02:20:27.604Z,1.00
2022-10-22T02:22:55.104Z,1.30
2022-10-22T02:25:23.011Z,0.90
2022-10-22T02:27:55.017Z,1.20
2022-10-22T02:30:24.133Z,1.10
2022-10-22T02:32:51.410Z,1.10
2022-10-22T02:35:20.961Z,1.20
2022-10-22T02:37:48.863Z,1.20
2022-10-22T02:40:16.241Z,1.20
2022-10-22T02:42:43.970Z,1.10
2022-10-22T02:45:11.361Z,1.30
2022-10-22T02:47:38.611Z,1.10
2022-10-22T02:50:09.395Z,0.90
2022-10-22T02:52:38.245Z,1.30
2022-10-22T02:55:06.622Z,1.10
2022-10-22T02:57:34.365Z,1.30
2022-10-22T03:00:01.617Z,1.10
2022-10-22T03:02:28.995Z,1.17
2022-10-22T03:04:56.247Z,1.20
2022-10-22T03:07:23.538Z,1.13
2022-10-22T03:09:50.866Z,1.07
2022-10-22T03:12:18.143Z,1.30
2022-10-22T03:14:45.433Z,1.40
2022-10-22T03:17:12.809Z,1.10
2022-10-22T03:19:40.118Z,1.10
2022-10-22T03:22:10.636Z,1.13
2022-10-22T03:24:42.451Z,1.13
2022-10-22T03:27:10.451Z,1.00
2022-10-22T03:29:39.256Z,1.03
2022-10-22T03:32:06.757Z,1.17
2022-10-22T03:34:34.149Z,0.87
2022-10-22T03:37:01.977Z,1.10
2022-10-22T03:39:30.501Z,1.00
2022-10-22T03:41:58.043Z,1.10
2022-10-22T03:44:25.471Z,1.43
2022-10-22T03:46:54.853Z,1.00
2022-10-22T03:49:24.669Z,1.20
2022-10-22T03:51:51.960Z,1.10
2022-10-22T03:54:19.223Z,1.30
2022-10-22T03:56:46.562Z,1.03
2022-10-22T03:59:13.835Z,1.27
2022-10-22T04:01:41.185Z,1.03
2022-10-22T04:04:08.762Z,0.97
2022-10-22T04:06:36.078Z,1.13
2022-10-22T04:09:03.504Z,1.10
2022-10-22T04:11:30.945Z,1.13
2022-10-22T04:13:58.313Z,1.10
2022-10-22T04:16:30.854Z,1.10
2022-10-22T04:18:58.161Z,1.23
2022-10-22T04:21:25.913Z,0.90
2022-10-22T04:23:53.506Z,1.17
2022-10-22T04:26:21.109Z,1.30
2022-10-22T04:28:49.075Z,0.90
2022-10-22T04:31:17.640Z,1.33
2022-10-22T04:33:44.935Z,0.90
2022-10-22T04:36:17.644Z,1.47
2022-10-22T04:38:46.129Z,1.30
2022-10-22T04:41:18.663Z,1.00
2022-10-22T04:43:46.479Z,1.10
2022-10-22T04:46:14.402Z,1.23
2022-10-22T04:48:42.905Z,0.93
2022-10-22T04:51:11.835Z,1.10
2022-10-22T04:53:40.508Z,1.20
2022-10-22T04:56:28.039Z,0.93
2022-10-22T04:58:56.840Z,1.03
2022-10-22T05:01:25.674Z,1.00
2022-10-22T05:03:54.348Z,1.13
2022-10-22T05:06:22.839Z,1.13
2022-10-22T05:08:53.453Z,1.30
2022-10-22T05:11:22.214Z,1.13
2022-10-22T05:13:49.953Z,1.00
2022-10-22T05:16:17.273Z,1.00
2022-10-22T05:18:45.889Z,0.90
2022-10-22T05:21:14.774Z,0.80
2022-10-22T05:23:42.122Z,0.90
2022-10-22T05:26:10.161Z,1.10
2022-10-22T05:28:37.828Z,1.10
2022-10-22T05:31:05.651Z,1.00
2022-10-22T05:33:33.622Z,1.10
2022-10-22T05:36:01.657Z,0.80
2022-10-22T05:38:29.110Z,1.20
2022-10-22T05:41:00.823Z,0.93
2022-10-22T05:43:28.752Z,0.83
2022-10-22T05:45:56.023Z,0.97
2022-10-22T05:48:23.373Z,0.90
2022-10-22T05:50:50.931Z,1.27
2022-10-22T05:53:18.806Z,0.77
2022-10-22T05:55:46.088Z,1.10
2022-10-22T05:58:13.854Z,0.90
2022-10-22T06:00:41.506Z,1.07
2022-10-22T06:03:08.889Z,0.90
2022-10-22T06:05:39.281Z,1.00
2022-10-22T06:08:06.670Z,0.77
2022-10-22T06:10:34.206Z,1.10
2022-10-22T06:13:03.176Z,0.97
2022-10-22T06:15:30.467Z,0.80
2022-10-22T06:17:57.785Z,0.77
2022-10-22T06:20:25.093Z,1.10
2022-10-22T06:22:52.390Z,1.00
2022-10-22T06:25:19.682Z,1.00
2022-10-22T06:27:51.564Z,1.30
2022-10-22T06:30:18.938Z,1.17
2022-10-22T06:32:46.263Z,1.20
2022-10-22T06:35:13.544Z,1.23
2022-10-22T06:37:41.143Z,0.90
2022-10-22T06:40:08.830Z,1.10
2022-10-22T06:42:36.140Z,0.97
2022-10-22T06:45:03.421Z,1.00
2022-10-22T06:47:33.310Z,1.10
2022-10-22T06:50:00.596Z,1.20
2022-10-22T06:52:27.919Z,1.20
2022-10-22T06:54:55.181Z,0.90
2022-10-22T06:57:22.471Z,1.00
2022-10-22T06:59:49.713Z,1.00
2022-10-22T07:02:17.003Z,0.90
2022-10-22T07:04:44.355Z,0.90
2022-10-22T07:07:11.618Z,0.97
2022-10-22T07:09:39.390Z,1.00
2022-10-22T07:12:06.934Z,1.00
2022-10-22T07:14:34.362Z,0.90
2022-10-22T07:17:02.157Z,1.00
2022-10-22T07:19:29.487Z,1.00
2022-10-22T07:21:56.746Z,1.00
2022-10-22T07:24:24.036Z,1.00
2022-10-22T07:26:51.414Z,1.00
2022-10-22T07:29:18.692Z,1.20
2022-10-22T07:31:46.118Z,1.17
2022-10-22T07:34:13.465Z,1.10
2022-10-22T07:36:40.801Z,1.37
2022-10-22T07:39:08.141Z,1.50
2022-10-22T07:41:35.962Z,1.30
2022-10-22T07:44:03.260Z,1.00
2022-10-22T07:46:30.566Z,0.87
2022-10-22T07:48:57.861Z,1.07
2022-10-22T07:51:25.206Z,0.80
2022-10-22T07:53:52.536Z,1.43
2022-10-22T07:56:19.857Z,0.80
2022-10-22T07:58:47.153Z,0.90
2022-10-22T08:01:14.791Z,1.07
2022-10-22T08:03:42.065Z,0.93
2022-10-22T08:06:10.333Z,0.70
2022-10-22T08:08:37.619Z,1.10
2022-10-22T08:11:05.572Z,0.90
2022-10-22T08:13:32.890Z,0.90
2022-10-22T08:16:01.100Z,0.83
2022-10-22T08:18:28.640Z,1.10
2022-10-22T08:20:56.046Z,1.20
2022-10-22T08:23:27.564Z,0.90
2022-10-22T08:25:55.983Z,0.90
2022-10-22T08:28:23.335Z,1.20
2022-10-22T08:30:50.776Z,1.10
2022-10-22T08:33:18.050Z,1.00
2022-10-22T08:35:49.507Z,0.90
2022-10-22T08:38:17.115Z,1.00
2022-10-22T08:40:45.072Z,1.03
2022-10-22T08:43:16.776Z,0.90
2022-10-22T08:45:48.917Z,1.00
2022-10-22T08:48:34.985Z,1.27
2022-10-22T08:51:02.310Z,1.00
2022-10-22T08:53:40.844Z,1.20
2022-10-22T08:56:08.108Z,0.83
2022-10-22T08:58:44.777Z,1.20
2022-10-22T09:01:18.611Z,0.90
2022-10-22T09:03:55.578Z,1.10
2022-10-22T09:06:26.633Z,0.90
2022-10-22T09:08:54.535Z,1.10
2022-10-22T09:11:21.786Z,1.13
2022-10-22T09:13:49.717Z,0.90
2022-10-22T09:16:22.629Z,1.00
2022-10-22T09:18:55.798Z,1.53
2022-10-22T09:21:29.055Z,0.90
2022-10-22T09:24:08.608Z,1.00
2022-10-22T09:26:38.121Z,1.00
2022-10-22T09:29:05.836Z,0.93
2022-10-22T09:31:33.423Z,0.83
2022-10-22T09:34:05.998Z,0.80
2022-10-22T09:36:33.925Z,0.90
2022-10-22T09:39:01.329Z,0.90
2022-10-22T09:41:29.954Z,0.90
2022-10-22T09:43:57.421Z,1.00
2022-10-22T09:46:27.662Z,1.13
2022-10-22T09:49:07.222Z,0.90
2022-10-22T09:51:49.794Z,1.00
2022-10-22T09:54:21.941Z,0.93
2022-10-22T09:56:56.468Z,0.87
2022-10-22T09:59:38.433Z,1.00
2022-10-22T10:02:37.132Z,1.17
2022-10-22T10:05:05.198Z,1.00
2022-10-22T10:07:33.922Z,1.13
2022-10-22T10:10:01.270Z,0.83
2022-10-22T10:12:58.043Z,0.90
2022-10-22T10:15:29.761Z,0.90
2022-10-22T10:18:15.390Z,1.00
2022-10-22T10:20:48.178Z,0.87
2022-10-22T10:23:25.423Z,1.10
2022-10-22T10:26:08.802Z,0.80
2022-10-22T10:28:45.494Z,1.20
2022-10-22T10:31:21.462Z,1.00
2022-10-22T10:33:51.714Z,0.93
2022-10-22T10:36:39.970Z,1.03
2022-10-22T10:39:15.757Z,0.90
2022-10-22T10:41:42.998Z,0.97
2022-10-22T10:44:10.287Z,0.97
2022-10-22T10:46:55.726Z,0.80
2022-10-22T10:49:31.720Z,1.03
2022-10-22T10:52:01.969Z,1.10
2022-10-22T10:57:10.657Z,0.90
2022-10-22T11:00:04.147Z,0.90
2022-10-22T11:02:50.205Z,1.10
2022-10-22T11:05:29.011Z,0.80
2022-10-22T11:08:14.385Z,1.40
2022-10-22T11:10:41.669Z,0.93
2022-10-22T11:13:14.849Z,1.03
2022-10-22T11:15:43.173Z,1.00
2022-10-22T11:18:16.666Z,1.70
2022-10-22T11:21:07.272Z,1.20
2022-10-22T11:23:40.659Z,1.20
2022-10-22T11:26:11.537Z,1.30
2022-10-22T11:28:42.990Z,1.43
2022-10-22T11:31:15.876Z,1.20
2022-10-22T11:34:04.806Z,1.33
2022-10-22T11:36:37.895Z,1.10
2022-10-22T11:39:05.249Z,1.03
2022-10-22T11:41:33.666Z,0.90
2022-10-22T11:44:11.685Z,1.40
2022-10-22T11:46:40.926Z,1.10
2022-10-22T11:49:14.445Z,0.90
2022-10-22T11:51:42.955Z,0.90
2022-10-22T11:54:29.082Z,1.10
2022-10-22T11:57:19.038Z,1.23
2022-10-22T11:59:51.104Z,0.90
2022-10-22T12:02:32.539Z,0.97
2022-10-22T12:05:19.751Z,0.97
2022-10-22T12:07:47.018Z,1.33
2022-10-22T12:10:19.830Z,0.93
2022-10-22T12:12:53.561Z,1.10
2022-10-22T12:15:27.662Z,1.10
2022-10-22T12:18:01.779Z,1.10
2022-10-22T12:20:29.303Z,1.20
2022-10-22T12:22:58.045Z,1.40
2022-10-22T12:25:26.738Z,0.90
2022-10-22T12:27:54.985Z,1.30
2022-10-22T12:30:23.784Z,1.07
2022-10-22T12:32:55.493Z,1.07
2022-10-22T12:35:24.527Z,1.00
2022-10-22T12:37:52.625Z,1.20
2022-10-22T12:40:21.550Z,1.30
2022-10-22T12:42:50.367Z,1.43
2022-10-22T12:45:17.861Z,1.17
2022-10-22T12:47:48.691Z,1.10
2022-10-22T12:50:20.281Z,1.10
2022-10-22T12:52:48.338Z,1.00
2022-10-22T12:55:17.331Z,0.90
2022-10-22T12:57:46.824Z,1.00
2022-10-22T13:00:21.446Z,1.00
2022-10-22T13:02:48.862Z,1.47
2022-10-22T13:05:21.837Z,1.10
2022-10-22T13:07:53.621Z,1.10
2022-10-22T13:10:20.942Z,1.00
2022-10-22T13:12:51.888Z,1.00
2022-10-22T13:15:20.572Z,0.90
2022-10-22T13:17:49.109Z,1.47
2022-10-22T13:20:16.395Z,1.20
2022-10-22T13:23:03.332Z,1.47
2022-10-22T13:25:31.740Z,1.37
2022-10-22T13:28:04.047Z,1.20
2022-10-22T13:30:32.609Z,1.40
2022-10-22T13:33:04.694Z,1.30
2022-10-22T13:35:33.363Z,1.27
2022-10-22T13:38:01.130Z,1.37
2022-10-22T13:40:28.623Z,1.30
2022-10-22T13:42:55.917Z,1.37
2022-10-22T13:45:23.793Z,1.37
2022-10-22T13:47:55.159Z,1.47
2022-10-22T13:50:22.701Z,1.40
2022-10-22T13:52:57.020Z,1.10
2022-10-22T13:55:27.302Z,1.33
2022-10-22T13:57:56.873Z,1.70
2022-10-22T14:00:24.254Z,1.70
2022-10-22T14:02:55.220Z,1.37
2022-10-22T14:05:22.510Z,1.07
2022-10-22T14:07:49.936Z,1.20
2022-10-22T14:10:21.675Z,1.00
2022-10-22T14:12:52.447Z,1.17
2022-10-22T14:15:24.692Z,1.13
2022-10-22T14:17:56.879Z,0.90
2022-10-22T14:20:31.215Z,1.20
2022-10-22T14:23:01.836Z,0.90
2022-10-22T14:25:31.441Z,0.97
2022-10-22T14:27:58.726Z,0.90
2022-10-22T14:30:26.940Z,1.10
2022-10-22T14:32:54.261Z,0.90
2022-10-22T14:35:22.478Z,0.80
2022-10-22T14:37:49.961Z,1.03
2022-10-22T14:40:18.801Z,1.43
2022-10-22T14:42:47.849Z,1.00
2022-10-22T14:45:22.771Z,1.00
2022-10-22T14:47:50.396Z,0.90
2022-10-22T14:50:18.316Z,0.87
2022-10-22T14:52:45.965Z,1.20
2022-10-22T14:55:13.996Z,0.97
2022-10-22T14:57:42.110Z,1.37
2022-10-22T15:00:11.344Z,1.00
2022-10-22T15:02:38.917Z,1.20
2022-10-22T15:05:06.939Z,0.90
2022-10-22T15:07:34.272Z,1.03
2022-10-22T15:10:01.591Z,1.07
2022-10-22T15:12:28.871Z,1.00
2022-10-22T15:14:56.159Z,1.10
2022-10-22T15:17:23.469Z,1.00
2022-10-22T15:19:50.755Z,1.20
2022-10-22T15:22:19.294Z,1.00
2022-10-22T15:24:48.460Z,1.00
2022-10-22T15:27:16.267Z,1.00
2022-10-22T15:29:43.777Z,0.97
2022-10-22T15:32:11.244Z,0.90
2022-10-22T15:34:39.522Z,1.00
2022-10-22T15:37:08.916Z,1.17
2022-10-22T15:39:36.430Z,0.80
2022-10-22T15:42:03.691Z,1.00
2022-10-22T15:44:32.044Z,1.20
2022-10-22T15:47:00.510Z,1.00
2022-10-22T15:49:28.851Z,0.80
2022-10-22T15:51:56.292Z,0.80
2022-10-22T15:54:25.396Z,1.20
2022-10-22T15:56:52.686Z,0.97
2022-10-22T15:59:20.022Z,0.80
2022-10-22T16:01:47.654Z,0.80
2022-10-22T16:04:14.965Z,1.07
2022-10-22T16:06:44.247Z,0.77
2022-10-22T16:09:15.384Z,1.20
2022-10-22T16:11:42.930Z,1.23
2022-10-22T16:14:14.747Z,1.00
2022-10-22T16:16:49.064Z,1.10
2022-10-22T16:19:17.592Z,0.90
2022-10-22T16:21:45.002Z,1.00
2022-10-22T16:24:13.208Z,0.80
2022-10-22T16:26:42.620Z,1.00
2022-10-22T16:29:12.479Z,1.10
2022-10-22T16:31:40.472Z,0.97
2022-10-22T16:34:08.368Z,0.80
2022-10-22T16:36:39.207Z,0.80
2022-10-22T16:39:07.098Z,1.00
2022-10-22T16:41:35.432Z,0.77
2022-10-22T16:44:04.907Z,1.00
2022-10-22T16:46:33.314Z,0.63
2022-10-22T16:49:00.830Z,1.10
2022-10-22T16:51:28.929Z,1.10
2022-10-22T16:53:57.129Z,1.00
2022-10-22T16:56:24.779Z,0.93
2022-10-22T16:58:53.793Z,0.87
2022-10-22T17:01:22.577Z,0.83
2022-10-22T17:03:49.945Z,1.20
2022-10-22T17:06:17.268Z,1.00
2022-10-22T17:08:44.684Z,0.97
2022-10-22T17:11:13.593Z,0.80
2022-10-22T17:13:41.935Z,1.00
2022-10-22T17:16:10.816Z,0.83
2022-10-22T17:18:39.654Z,1.17
2022-10-22T17:21:07.768Z,0.80
2022-10-22T17:23:35.133Z,1.40
2022-10-22T17:26:06.448Z,1.13
2022-10-22T17:28:34.383Z,0.77
2022-10-22T17:31:06.046Z,0.83
2022-10-22T17:33:34.470Z,1.20
2022-10-22T17:36:01.809Z,0.93
2022-10-22T17:38:29.210Z,1.03
2022-10-22T17:40:58.559Z,0.90
2022-10-22T17:43:26.397Z,0.90
2022-10-22T17:45:53.749Z,1.10
2022-10-22T17:48:23.586Z,1.10
2022-10-22T17:50:53.642Z,0.83
2022-10-22T17:53:23.132Z,1.35
2022-10-22T17:55:50.493Z,1.17
2022-10-22T17:58:18.208Z,1.07
2022-10-22T18:00:45.557Z,1.10
2022-10-22T18:03:13.006Z,1.30
2022-10-22T18:05:40.303Z,1.20
2022-10-22T18:08:07.828Z,1.17
2022-10-22T18:10:39.557Z,1.20
2022-10-22T18:13:07.056Z,1.00
2022-10-22T18:15:36.352Z,1.30
2022-10-22T18:18:04.584Z,1.27
2022-10-22T18:20:31.957Z,1.10
2022-10-22T18:22:59.376Z,1.37
2022-10-22T18:25:26.877Z,1.33
2022-10-22T18:27:54.284Z,1.00
2022-10-22T18:30:21.651Z,1.20
2022-10-22T18:32:51.743Z,1.00
2022-10-22T18:35:19.137Z,1.67
2022-10-22T18:37:46.593Z,1.37
2022-10-22T18:40:14.835Z,1.60
2022-10-22T18:42:42.696Z,1.50
2022-10-22T18:45:12.051Z,1.30
2022-10-22T18:47:42.815Z,1.03
2022-10-22T18:50:10.415Z,1.00
2022-10-22T18:52:37.774Z,1.00
2022-10-22T18:55:05.746Z,1.10
2022-10-22T18:57:33.165Z,1.40
2022-10-22T19:00:00.543Z,1.23
2022-10-22T19:02:29.678Z,1.40
2022-10-22T19:04:57.601Z,1.33
2022-10-22T19:07:24.899Z,1.37
2022-10-22T19:09:52.254Z,1.40
2022-10-22T19:12:21.684Z,1.30
2022-10-22T19:14:49.667Z,1.23
2022-10-22T19:17:17.134Z,1.67
2022-10-22T19:19:45.455Z,1.20
2022-10-22T19:22:13.057Z,1.27
2022-10-22T19:24:40.446Z,1.40
2022-10-22T19:27:08.592Z,1.37
2022-10-22T19:29:37.068Z,1.63
2022-10-22T19:32:04.496Z,1.53
2022-10-22T19:34:31.892Z,2.20
2022-10-22T19:36:59.204Z,1.30
2022-10-22T19:39:26.572Z,1.80
2022-10-22T19:41:53.906Z,1.80
2022-10-22T19:44:21.261Z,1.57
2022-10-22T19:46:48.761Z,1.63
2022-10-22T19:49:19.062Z,2.20
2022-10-22T19:51:49.491Z,1.87
2022-10-22T19:54:18.572Z,1.80
2022-10-22T19:56:46.426Z,1.83
2022-10-22T19:59:15.036Z,2.70
2022-10-22T20:01:42.853Z,1.60
2022-10-22T20:04:15.319Z,1.77
2022-10-22T20:06:43.109Z,1.90
2022-10-22T20:09:11.304Z,2.00
2022-10-22T20:11:38.778Z,1.73
2022-10-22T20:14:06.253Z,1.60
2022-10-22T20:16:33.752Z,1.83
2022-10-22T20:19:02.439Z,2.33
2022-10-22T20:21:30.264Z,1.93
2022-10-22T20:23:57.763Z,1.60
2022-10-22T20:26:28.281Z,1.70
2022-10-22T20:28:56.456Z,2.00
2022-10-22T20:31:25.126Z,1.70
2022-10-22T20:33:52.597Z,1.83
2022-10-22T20:36:21.265Z,1.93
2022-10-22T20:38:49.301Z,2.03
2022-10-22T20:41:18.419Z,1.30
2022-10-22T20:43:46.482Z,2.53
2022-10-22T20:46:18.394Z,1.70
2022-10-22T20:48:46.152Z,1.60
2022-10-22T20:51:13.671Z,1.83
2022-10-22T20:53:41.007Z,1.33
2022-10-22T20:56:08.758Z,2.20
2022-10-22T20:58:36.731Z,1.80
2022-10-22T21:01:10.320Z,1.80
2022-10-22T21:03:38.539Z,1.80
2022-10-22T21:06:06.428Z,1.57
2022-10-22T21:08:34.031Z,1.93
2022-10-22T21:11:01.379Z,2.60
2022-10-22T21:13:31.862Z,1.70
2022-10-22T21:15:59.480Z,1.87
2022-10-22T21:18:27.096Z,2.13
2022-10-22T21:20:54.535Z,1.80
2022-10-22T21:23:21.965Z,2.00
2022-10-22T21:25:56.361Z,2.00
2022-10-22T21:28:23.791Z,1.87
2022-10-22T21:30:51.237Z,1.50
2022-10-22T21:33:18.869Z,1.37
2022-10-22T21:35:53.627Z,1.67
2022-10-22T21:38:21.259Z,2.13
2022-10-22T21:40:48.851Z,2.23
2022-10-22T21:43:17.031Z,1.90
2022-10-22T21:45:44.696Z,1.57
2022-10-22T21:48:12.775Z,2.20
2022-10-22T21:50:40.963Z,1.73
2022-10-22T21:53:09.121Z,2.07
2022-10-22T21:55:40.375Z,1.73
2022-10-22T21:58:08.765Z,1.53
2022-10-22T22:00:36.635Z,2.00
2022-10-22T22:03:04.258Z,2.00
2022-10-22T22:05:31.771Z,2.10
2022-10-22T22:07:59.080Z,2.20
2022-10-22T22:10:26.785Z,2.07
2022-10-22T22:12:54.163Z,1.93
2022-10-22T22:15:21.540Z,1.50
2022-10-22T22:17:48.935Z,1.70
2022-10-22T22:20:16.425Z,1.97
2022-10-22T22:22:43.947Z,1.70
2022-10-22T22:25:11.653Z,1.63
2022-10-22T22:27:39.059Z,1.40
2022-10-22T22:30:06.943Z,2.00
2022-10-22T22:32:35.536Z,1.50
2022-10-22T22:35:02.870Z,1.90
2022-10-22T22:37:30.286Z,1.70
2022-10-22T22:39:57.694Z,2.13
2022-10-22T22:42:25.036Z,1.80
2022-10-22T22:44:52.376Z,1.83
2022-10-22T22:47:19.812Z,1.53
2022-10-22T22:49:47.160Z,2.17
2022-10-22T22:52:14.597Z,2.00
2022-10-22T22:54:42.138Z,1.97
2022-10-22T22:57:09.476Z,1.67
2022-10-22T22:59:36.833Z,2.03
2022-10-22T23:02:04.190Z,1.70
2022-10-22T23:04:31.517Z,1.70
2022-10-22T23:06:58.890Z,1.67
2022-10-22T23:09:26.266Z,2.47
2022-10-22T23:11:53.617Z,2.30
2022-10-22T23:14:21.257Z,2.50
2022-10-22T23:16:49.683Z,2.10
2022-10-22T23:19:18.009Z,1.60
2022-10-22T23:21:47.193Z,2.07
2022-10-22T23:24:15.817Z,2.10
2022-10-22T23:26:47.927Z,2.33
2022-10-22T23:29:17.416Z,1.90
2022-10-22T23:31:45.359Z,2.63
2022-10-22T23:34:14.704Z,2.03
2022-10-22T23:36:42.308Z,1.87
2022-10-22T23:39:10.897Z,1.80
2022-10-22T23:41:38.267Z,1.77
2022-10-22T23:44:06.160Z,2.27
2022-10-22T23:46:33.564Z,1.80
2022-10-22T23:49:01.384Z,1.57
2022-10-22T23:51:28.807Z,2.00
2022-10-22T23:53:57.339Z,1.70
2022-10-22T23:56:24.775Z,2.10
2022-10-22T23:58:53.422Z,1.90
